createdAt,value
2018-10-18T00:00:39.301Z,95.10
2018-10-18T00:01:39.323Z,89.50
2018-10-18T00:02:39.341Z,88.40
2018-10-18T00:03:39.362Z,92.10
2018-10-18T00:04:39.381Z,90.20
2018-10-18T00:05:39.405Z,94.20
2018-10-18T00:06:39.422Z,98.70
2018-10-18T00:07:39.441Z,93.20
2018-10-18T00:08:39.461Z,88.60
2018-10-18T00:09:39.482Z,90.40
2018-10-18T00:10:39.502Z,87.60
2018-10-18T00:11:39.522Z,93.40
2018-10-18T00:12:39.547Z,90.50
2018-10-18T00:13:39.562Z,89.60
2018-10-18T00:14:39.582Z,93.80
2018-10-18T00:15:39.601Z,86.40
2018-10-18T00:16:39.626Z,85.20
2018-10-18T00:17:39.642Z,85.10
2018-10-18T00:18:39.663Z,81.00
2018-10-18T00:19:39.684Z,87.20
2018-10-18T00:20:39.701Z,89.70
2018-10-18T00:21:39.722Z,91.10
2018-10-18T00:22:39.743Z,84.90
2018-10-18T00:23:39.762Z,86.00
2018-10-18T00:24:39.782Z,82.80
2018-10-18T00:25:39.801Z,90.70
2018-10-18T00:26:39.823Z,92.10
2018-10-18T00:27:39.842Z,99.20
2018-10-18T00:28:39.863Z,91.40
2018-10-18T00:29:39.882Z,89.60
2018-10-18T00:30:39.901Z,93.10
2018-10-18T00:31:39.924Z,83.80
2018-10-18T00:32:39.941Z,95.50
2018-10-18T00:33:39.962Z,93.90
2018-10-18T00:34:39.986Z,84.40
2018-10-18T00:35:40.001Z,82.40
2018-10-18T00:36:40.022Z,86.80
2018-10-18T00:37:40.042Z,92.20
2018-10-18T00:38:40.063Z,94.80
2018-10-18T00:39:40.082Z,88.30
2018-10-18T00:40:40.101Z,93.60
2018-10-18T00:41:40.123Z,90.00
2018-10-18T00:42:40.142Z,91.80
2018-10-18T00:43:40.163Z,85.10
2018-10-18T00:44:40.182Z,81.00
2018-10-18T00:45:40.202Z,84.70
2018-10-18T00:46:40.221Z,91.30
2018-10-18T00:47:40.244Z,84.10
2018-10-18T00:48:40.261Z,79.10
2018-10-18T00:49:40.281Z,73.10
2018-10-18T00:50:40.302Z,74.80
2018-10-18T00:51:40.321Z,77.10
2018-10-18T00:52:40.341Z,76.50
2018-10-18T00:53:40.362Z,74.10
2018-10-18T00:54:40.382Z,77.30
2018-10-18T00:55:40.401Z,73.20
2018-10-18T00:56:40.421Z,72.70
2018-10-18T00:57:40.441Z,69.50
2018-10-18T00:58:40.461Z,64.10
2018-10-18T00:59:40.482Z,70.80
2018-10-18T01:00:40.501Z,74.10
2018-10-18T01:01:40.522Z,69.70
2018-10-18T01:02:40.541Z,65.30
2018-10-18T01:03:40.560Z,66.00
2018-10-18T01:04:40.583Z,65.00
2018-10-18T01:05:40.604Z,62.30
2018-10-18T01:06:40.623Z,63.20
2018-10-18T01:07:40.641Z,63.60
2018-10-18T01:08:40.662Z,65.80
2018-10-18T01:09:40.685Z,63.80
2018-10-18T01:10:40.703Z,61.50
2018-10-18T01:11:40.725Z,66.30
2018-10-18T01:12:40.839Z,59.20
2018-10-18T01:13:40.762Z,63.70
2018-10-18T01:14:40.788Z,58.70
2018-10-18T01:15:40.806Z,57.90
2018-10-18T01:16:40.822Z,62.00
2018-10-18T01:17:40.852Z,58.00
2018-10-18T01:18:40.863Z,63.50
2018-10-18T01:19:40.886Z,57.50
2018-10-18T01:20:40.906Z,62.20
2018-10-18T01:21:40.925Z,58.90
2018-10-18T01:22:40.944Z,61.60
2018-10-18T01:23:40.963Z,54.30
2018-10-18T01:24:40.984Z,62.00
2018-10-18T01:25:41.004Z,57.50
2018-10-18T01:26:41.025Z,57.60
2018-10-18T01:27:41.044Z,52.30
2018-10-18T01:28:41.064Z,59.50
2018-10-18T01:29:41.085Z,56.20
2018-10-18T01:30:41.109Z,61.70
2018-10-18T01:31:41.125Z,53.00
2018-10-18T01:32:41.145Z,52.60
2018-10-18T01:33:41.166Z,55.60
2018-10-18T01:34:41.186Z,57.00
2018-10-18T01:35:41.205Z,56.10
2018-10-18T01:36:41.226Z,54.90
2018-10-18T01:37:41.246Z,58.90
2018-10-18T01:38:41.267Z,53.50
2018-10-18T01:39:41.286Z,53.10
2018-10-18T01:40:41.307Z,50.40
2018-10-18T01:41:41.327Z,51.60
2018-10-18T01:42:41.346Z,55.40
2018-10-18T01:43:41.368Z,54.90
2018-10-18T01:44:41.387Z,49.10
2018-10-18T01:45:41.407Z,55.40
2018-10-18T01:46:41.428Z,56.50
2018-10-18T01:47:41.447Z,53.40
2018-10-18T01:48:41.467Z,51.50
2018-10-18T01:49:41.490Z,50.20
2018-10-18T01:50:41.511Z,47.30
2018-10-18T01:51:41.528Z,50.70
2018-10-18T01:52:41.549Z,50.80
2018-10-18T01:53:41.569Z,52.20
2018-10-18T01:54:41.590Z,47.90
2018-10-18T01:55:41.608Z,50.20
2018-10-18T01:56:41.629Z,49.10
2018-10-18T01:57:41.649Z,48.90
2018-10-18T01:58:41.669Z,50.90
2018-10-18T01:59:41.692Z,50.80
2018-10-18T02:00:41.710Z,49.80
2018-10-18T02:01:41.731Z,50.10
2018-10-18T02:02:41.751Z,48.90
2018-10-18T02:03:41.770Z,45.90
2018-10-18T02:04:41.791Z,43.60
2018-10-18T02:05:41.812Z,48.80
2018-10-18T02:06:41.832Z,48.10
2018-10-18T02:07:41.851Z,46.50
2018-10-18T02:08:41.872Z,47.70
2018-10-18T02:09:41.893Z,45.80
2018-10-18T02:10:41.913Z,46.60
2018-10-18T02:11:41.932Z,44.90
2018-10-18T02:12:41.953Z,43.00
2018-10-18T02:13:42.053Z,46.10
2018-10-18T02:14:41.993Z,47.80
2018-10-18T02:15:42.018Z,46.00
2018-10-18T02:16:42.034Z,45.50
2018-10-18T02:17:42.053Z,48.90
2018-10-18T02:18:42.078Z,42.80
2018-10-18T02:19:42.093Z,46.10
2018-10-18T02:20:42.114Z,45.80
2018-10-18T02:21:42.135Z,44.20
2018-10-18T02:22:42.157Z,47.00
2018-10-18T02:23:42.175Z,43.40
2018-10-18T02:24:42.196Z,44.80
2018-10-18T02:25:42.216Z,47.30
2018-10-18T02:26:42.237Z,47.40
2018-10-18T02:27:42.256Z,41.90
2018-10-18T02:28:42.276Z,43.30
2018-10-18T02:29:42.296Z,43.40
2018-10-18T02:30:42.319Z,43.70
2018-10-18T02:31:42.337Z,44.90
2018-10-18T02:32:42.358Z,47.30
2018-10-18T02:33:42.376Z,43.20
2018-10-18T02:34:42.399Z,44.80
2018-10-18T02:35:42.418Z,44.30
2018-10-18T02:36:42.438Z,42.30
2018-10-18T02:37:42.459Z,39.40
2018-10-18T02:38:42.479Z,43.60
2018-10-18T02:39:42.500Z,44.20
2018-10-18T02:40:42.518Z,47.30
2018-10-18T02:41:42.542Z,44.60
2018-10-18T02:42:42.561Z,43.90
2018-10-18T02:43:42.579Z,41.80
2018-10-18T02:44:42.599Z,48.10
2018-10-18T02:45:42.622Z,42.90
2018-10-18T02:46:42.643Z,41.10
2018-10-18T02:47:42.659Z,40.70
2018-10-18T02:48:42.685Z,48.50
2018-10-18T02:49:42.701Z,43.30
2018-10-18T02:50:42.720Z,48.00
2018-10-18T02:51:42.743Z,45.20
2018-10-18T02:52:42.760Z,46.30
2018-10-18T02:53:42.782Z,43.50
2018-10-18T02:54:42.805Z,45.30
2018-10-18T02:55:42.823Z,45.80
2018-10-18T02:56:42.840Z,41.70
2018-10-18T02:57:42.925Z,46.10
2018-10-18T02:58:42.883Z,41.20
2018-10-18T02:59:42.904Z,43.50
2018-10-18T03:00:42.922Z,43.30
2018-10-18T03:01:42.941Z,42.00
2018-10-18T03:02:42.963Z,42.60
2018-10-18T03:03:42.985Z,38.70
2018-10-18T03:04:43.003Z,42.10
2018-10-18T03:05:43.024Z,43.50
2018-10-18T03:06:43.085Z,42.60
2018-10-18T03:07:43.064Z,42.10
2018-10-18T03:08:43.083Z,40.80
2018-10-18T03:09:43.103Z,42.00
2018-10-18T03:10:43.225Z,40.20
2018-10-18T03:11:43.144Z,40.40
2018-10-18T03:12:43.164Z,37.60
2018-10-18T03:13:43.185Z,38.70
2018-10-18T03:14:43.205Z,41.50
2018-10-18T03:15:43.225Z,39.60
2018-10-18T03:16:43.395Z,42.90
2018-10-18T03:17:43.266Z,40.40
2018-10-18T03:18:43.293Z,42.40
2018-10-18T03:19:43.305Z,39.10
2018-10-18T03:20:43.326Z,38.80
2018-10-18T03:21:43.345Z,40.90
2018-10-18T03:22:43.367Z,38.90
2018-10-18T03:23:43.390Z,38.10
2018-10-18T03:24:43.407Z,43.90
2018-10-18T03:25:43.430Z,41.30
2018-10-18T03:26:43.447Z,38.50
2018-10-18T03:27:43.466Z,39.00
2018-10-18T03:28:43.487Z,42.10
2018-10-18T03:29:43.507Z,42.60
2018-10-18T03:30:43.528Z,43.20
2018-10-18T03:31:43.550Z,39.10
2018-10-18T03:32:43.568Z,36.70
2018-10-18T03:33:43.592Z,47.10
2018-10-18T03:34:43.610Z,38.80
2018-10-18T03:35:43.626Z,39.90
2018-10-18T03:36:43.647Z,38.20
2018-10-18T03:37:43.668Z,40.70
2018-10-18T03:38:43.688Z,42.70
2018-10-18T03:39:43.708Z,37.50
2018-10-18T03:40:43.728Z,40.90
2018-10-18T03:41:43.749Z,39.70
2018-10-18T03:42:43.768Z,41.30
2018-10-18T03:43:43.788Z,36.20
2018-10-18T03:44:43.808Z,38.60
2018-10-18T03:45:43.829Z,43.70
2018-10-18T03:46:43.849Z,38.20
2018-10-18T03:47:43.873Z,38.10
2018-10-18T03:48:43.909Z,43.60
2018-10-18T03:49:43.909Z,45.00
2018-10-18T03:50:43.930Z,42.00
2018-10-18T03:51:43.951Z,39.00
2018-10-18T03:52:43.970Z,39.60
2018-10-18T03:53:43.989Z,43.50
2018-10-18T03:54:44.011Z,40.30
2018-10-18T03:55:44.030Z,40.70
2018-10-18T03:56:44.050Z,39.30
2018-10-18T03:57:44.070Z,38.80
2018-10-18T03:58:44.091Z,40.00
2018-10-18T03:59:44.210Z,36.90
2018-10-18T04:00:44.130Z,39.90
2018-10-18T04:01:44.150Z,36.80
2018-10-18T04:02:44.170Z,36.40
2018-10-18T04:03:44.190Z,36.40
2018-10-18T04:04:44.211Z,37.10
2018-10-18T04:05:44.231Z,33.50
2018-10-18T04:06:44.252Z,34.70
2018-10-18T04:07:44.273Z,37.40
2018-10-18T04:08:44.291Z,41.40
2018-10-18T04:09:44.311Z,33.10
2018-10-18T04:10:44.332Z,31.70
2018-10-18T04:11:44.353Z,35.00
2018-10-18T04:12:44.461Z,35.30
2018-10-18T04:13:44.393Z,37.80
2018-10-18T04:14:44.415Z,32.20
2018-10-18T04:15:44.432Z,35.10
2018-10-18T04:16:44.453Z,34.10
2018-10-18T04:17:44.553Z,39.50
2018-10-18T04:18:44.493Z,36.40
2018-10-18T04:19:44.512Z,36.50
2018-10-18T04:20:44.535Z,31.10
2018-10-18T04:21:44.554Z,36.80
2018-10-18T04:22:44.574Z,32.60
2018-10-18T04:23:44.594Z,37.00
2018-10-18T04:24:44.614Z,32.30
2018-10-18T04:25:44.718Z,31.50
2018-10-18T04:26:44.655Z,29.50
2018-10-18T04:27:44.675Z,32.30
2018-10-18T04:28:44.694Z,31.10
2018-10-18T04:29:44.714Z,27.80
2018-10-18T04:30:44.735Z,31.70
2018-10-18T04:31:44.758Z,30.40
2018-10-18T04:32:44.776Z,33.00
2018-10-18T04:33:44.796Z,28.20
2018-10-18T04:34:44.816Z,29.40
2018-10-18T04:35:44.837Z,31.90
2018-10-18T04:36:44.856Z,37.00
2018-10-18T04:37:44.875Z,31.10
2018-10-18T04:38:44.899Z,31.00
2018-10-18T04:39:44.916Z,30.90
2018-10-18T04:40:45.289Z,35.10
2018-10-18T04:41:44.957Z,31.40
2018-10-18T04:42:44.979Z,32.30
2018-10-18T04:43:44.998Z,32.00
2018-10-18T04:44:45.018Z,30.20
2018-10-18T04:45:45.037Z,34.20
2018-10-18T04:46:45.060Z,29.80
2018-10-18T04:47:45.255Z,35.20
2018-10-18T04:48:45.250Z,31.00
2018-10-18T04:49:45.120Z,31.50
2018-10-18T04:50:45.139Z,33.00
2018-10-18T04:51:45.158Z,32.30
2018-10-18T04:52:45.180Z,31.90
2018-10-18T04:53:45.198Z,31.20
2018-10-18T04:54:45.218Z,34.60
2018-10-18T04:55:45.238Z,36.50
2018-10-18T04:56:45.293Z,32.70
2018-10-18T04:57:45.279Z,36.60
2018-10-18T04:58:45.299Z,28.60
2018-10-18T04:59:45.319Z,31.70
2018-10-18T05:00:45.339Z,31.10
2018-10-18T05:01:45.360Z,29.90
2018-10-18T05:02:45.422Z,32.00
2018-10-18T05:03:45.400Z,36.10
2018-10-18T05:04:45.428Z,32.40
2018-10-18T05:05:45.442Z,31.00
2018-10-18T05:06:45.460Z,35.00
2018-10-18T05:07:45.503Z,34.90
2018-10-18T05:08:45.500Z,36.50
2018-10-18T05:09:45.521Z,31.50
2018-10-18T05:10:45.540Z,29.70
2018-10-18T05:11:45.559Z,29.50
2018-10-18T05:12:45.727Z,29.20
2018-10-18T05:13:45.601Z,27.60
2018-10-18T05:14:45.623Z,29.80
2018-10-18T05:15:45.646Z,29.60
2018-10-18T05:16:45.664Z,33.30
2018-10-18T05:17:45.682Z,28.90
2018-10-18T05:18:45.702Z,28.40
2018-10-18T05:19:45.721Z,27.60
2018-10-18T05:20:45.745Z,27.80
2018-10-18T05:21:45.761Z,26.30
2018-10-18T05:22:45.782Z,34.30
2018-10-18T05:23:45.838Z,29.90
2018-10-18T05:24:45.822Z,31.10
2018-10-18T05:25:45.843Z,29.20
2018-10-18T05:26:45.862Z,27.70
2018-10-18T05:27:45.882Z,32.90
2018-10-18T05:28:45.902Z,29.50
2018-10-18T05:29:45.923Z,33.70
2018-10-18T05:30:45.943Z,31.50
2018-10-18T05:31:46.062Z,27.40
2018-10-18T05:32:45.982Z,28.60
2018-10-18T05:33:46.001Z,26.90
2018-10-18T05:34:46.023Z,27.70
2018-10-18T05:35:46.042Z,29.90
2018-10-18T05:36:46.061Z,26.00
2018-10-18T05:37:46.142Z,29.50
2018-10-18T05:38:46.107Z,29.70
2018-10-18T05:39:46.126Z,30.20
2018-10-18T05:40:46.143Z,29.10
2018-10-18T05:41:46.163Z,25.30
2018-10-18T05:42:46.183Z,29.70
2018-10-18T05:43:46.204Z,28.30
2018-10-18T05:44:46.225Z,34.90
2018-10-18T05:45:46.243Z,31.00
2018-10-18T05:46:46.340Z,26.30
2018-10-18T05:47:46.283Z,28.70
2018-10-18T05:48:46.308Z,29.50
2018-10-18T05:49:46.325Z,23.50
2018-10-18T05:50:46.342Z,29.20
2018-10-18T05:51:46.362Z,33.90
2018-10-18T05:52:46.382Z,26.80
2018-10-18T05:53:46.539Z,31.10
2018-10-18T05:54:46.423Z,33.70
2018-10-18T05:55:46.441Z,26.50
2018-10-18T05:56:46.463Z,32.70
2018-10-18T05:57:46.482Z,27.90
2018-10-18T05:58:46.503Z,25.00
2018-10-18T05:59:46.520Z,25.90
2018-10-18T06:00:46.545Z,26.70
2018-10-18T06:01:46.561Z,30.80
2018-10-18T06:02:46.583Z,25.50
2018-10-18T06:03:46.601Z,30.70
2018-10-18T06:04:46.621Z,26.10
2018-10-18T06:05:46.645Z,24.70
2018-10-18T06:06:46.661Z,23.10
2018-10-18T06:07:46.680Z,28.00
2018-10-18T06:08:46.699Z,25.50
2018-10-18T06:09:46.781Z,24.90
2018-10-18T06:10:46.739Z,24.00
2018-10-18T06:11:46.758Z,28.20
2018-10-18T06:12:46.781Z,27.90
2018-10-18T06:13:46.799Z,26.30
2018-10-18T06:14:46.819Z,27.90
2018-10-18T06:15:46.844Z,26.10
2018-10-18T06:16:46.859Z,29.20
2018-10-18T06:17:46.879Z,23.60
2018-10-18T06:18:46.897Z,27.80
2018-10-18T06:19:46.918Z,25.20
2018-10-18T06:20:46.937Z,25.40
2018-10-18T06:21:46.958Z,25.90
2018-10-18T06:22:47.045Z,27.40
2018-10-18T06:23:46.997Z,24.20
2018-10-18T06:24:47.020Z,27.50
2018-10-18T06:25:47.037Z,28.20
2018-10-18T06:26:47.058Z,24.60
2018-10-18T06:27:47.126Z,29.20
2018-10-18T06:28:47.096Z,28.90
2018-10-18T06:29:47.118Z,31.00
2018-10-18T06:30:47.136Z,25.30
2018-10-18T06:31:47.156Z,30.30
2018-10-18T06:32:47.181Z,28.80
2018-10-18T06:33:47.194Z,28.30
2018-10-18T06:34:47.216Z,26.30
2018-10-18T06:35:47.234Z,27.70
2018-10-18T06:36:47.259Z,29.50
2018-10-18T06:37:47.277Z,26.90
2018-10-18T06:38:47.295Z,47.50
2018-10-18T06:39:47.315Z,30.20
2018-10-18T06:40:47.333Z,26.90
2018-10-18T06:41:47.355Z,24.60
2018-10-18T06:42:47.385Z,28.50
2018-10-18T06:43:47.393Z,28.20
2018-10-18T06:44:47.415Z,28.70
2018-10-18T06:45:47.434Z,28.40
2018-10-18T06:46:47.502Z,29.20
2018-10-18T06:47:47.631Z,28.60
2018-10-18T06:48:47.518Z,30.40
2018-10-18T06:49:47.515Z,32.20
2018-10-18T06:50:47.535Z,24.30
2018-10-18T06:51:47.553Z,22.70
2018-10-18T06:52:47.576Z,24.30
2018-10-18T06:53:47.593Z,26.70
2018-10-18T06:54:47.614Z,22.80
2018-10-18T06:55:47.632Z,24.80
2018-10-18T06:56:47.652Z,26.90
2018-10-18T06:57:47.675Z,27.10
2018-10-18T06:58:47.693Z,25.10
2018-10-18T06:59:47.789Z,26.20
2018-10-18T07:00:47.733Z,25.20
2018-10-18T07:01:47.756Z,23.40
2018-10-18T07:02:47.776Z,25.70
2018-10-18T07:03:47.792Z,23.70
2018-10-18T07:04:47.813Z,26.50
2018-10-18T07:05:47.832Z,20.10
2018-10-18T07:06:47.853Z,24.50
2018-10-18T07:07:47.872Z,22.60
2018-10-18T07:08:47.942Z,23.50
2018-10-18T07:09:47.921Z,21.30
2018-10-18T07:10:47.985Z,26.60
2018-10-18T07:11:47.953Z,24.10
2018-10-18T07:12:47.973Z,22.60
2018-10-18T07:13:48.004Z,21.20
2018-10-18T07:14:48.020Z,29.60
2018-10-18T07:15:48.032Z,21.70
2018-10-18T07:16:48.052Z,24.00
2018-10-18T07:17:48.188Z,26.30
2018-10-18T07:18:48.092Z,28.80
2018-10-18T07:19:48.111Z,21.50
2018-10-18T07:20:48.131Z,19.30
2018-10-18T07:21:48.154Z,24.60
2018-10-18T07:22:48.172Z,27.10
2018-10-18T07:23:48.194Z,22.00
2018-10-18T07:24:48.212Z,20.40
2018-10-18T07:25:48.231Z,21.10
2018-10-18T07:26:48.251Z,24.30
2018-10-18T07:27:48.271Z,24.20
2018-10-18T07:28:48.292Z,22.20
2018-10-18T07:29:48.312Z,21.50
2018-10-18T07:30:48.332Z,24.60
2018-10-18T07:31:48.350Z,19.50
2018-10-18T07:32:48.370Z,21.90
2018-10-18T07:33:48.391Z,18.90
2018-10-18T07:34:48.418Z,20.40
2018-10-18T07:35:48.432Z,20.10
2018-10-18T07:36:48.450Z,24.40
2018-10-18T07:37:48.471Z,21.90
2018-10-18T07:38:48.491Z,23.70
2018-10-18T07:39:48.508Z,24.80
2018-10-18T07:40:48.529Z,22.00
2018-10-18T07:41:48.548Z,25.10
2018-10-18T07:42:48.570Z,20.40
2018-10-18T07:43:48.589Z,20.80
2018-10-18T07:44:48.609Z,20.90
2018-10-18T07:45:48.630Z,20.70
2018-10-18T07:46:48.739Z,23.70
2018-10-18T07:47:48.670Z,24.90
2018-10-18T07:48:48.688Z,28.40
2018-10-18T07:49:48.707Z,27.60
2018-10-18T07:50:48.732Z,25.10
2018-10-18T07:51:48.747Z,22.00
2018-10-18T07:52:48.782Z,23.40
2018-10-18T07:53:48.792Z,19.20
2018-10-18T07:54:48.807Z,21.20
2018-10-18T07:55:49.083Z,23.20
2018-10-18T07:56:48.846Z,20.00
2018-10-18T07:57:48.867Z,19.70
2018-10-18T07:58:48.887Z,24.70
2018-10-18T07:59:48.911Z,22.20
2018-10-18T08:00:49.065Z,22.80
2018-10-18T08:01:48.946Z,22.90
2018-10-18T08:02:48.969Z,19.00
2018-10-18T08:03:48.988Z,20.50
2018-10-18T08:04:49.005Z,21.20
2018-10-18T08:05:49.034Z,19.40
2018-10-18T08:06:49.045Z,23.20
2018-10-18T08:07:49.064Z,20.50
2018-10-18T08:08:49.085Z,24.50
2018-10-18T08:09:49.126Z,20.80
2018-10-18T08:10:49.173Z,17.50
2018-10-18T08:11:49.145Z,19.80
2018-10-18T08:12:49.165Z,19.70
2018-10-18T08:13:49.186Z,21.70
2018-10-18T08:14:49.209Z,17.40
2018-10-18T08:15:49.223Z,17.40
2018-10-18T08:16:49.309Z,23.80
2018-10-18T08:17:49.264Z,15.70
2018-10-18T08:18:49.285Z,19.00
2018-10-18T08:19:49.304Z,16.90
2018-10-18T08:20:49.325Z,18.60
2018-10-18T08:21:49.345Z,19.20
2018-10-18T08:22:49.366Z,14.80
2018-10-18T08:23:49.386Z,14.10
2018-10-18T08:24:49.405Z,20.90
2018-10-18T08:25:49.425Z,39.30
2018-10-18T08:26:49.446Z,21.70
2018-10-18T08:27:49.465Z,16.30
2018-10-18T08:28:49.493Z,19.10
2018-10-18T08:29:49.509Z,17.90
2018-10-18T08:30:49.526Z,22.00
2018-10-18T08:31:49.629Z,18.40
2018-10-18T08:32:49.566Z,18.20
2018-10-18T08:33:49.586Z,18.40
2018-10-18T08:34:49.606Z,19.20
2018-10-18T08:35:49.625Z,18.00
2018-10-18T08:36:49.654Z,25.30
2018-10-18T08:37:49.767Z,28.90
2018-10-18T08:38:49.686Z,20.40
2018-10-18T08:39:49.706Z,18.70
2018-10-18T08:40:49.725Z,22.10
2018-10-18T08:41:49.746Z,20.00
2018-10-18T08:42:49.765Z,18.00
2018-10-18T08:43:49.811Z,19.70
2018-10-18T08:44:49.808Z,18.70
2018-10-18T08:45:49.826Z,19.60
2018-10-18T08:46:49.846Z,23.00
2018-10-18T08:47:49.865Z,19.50
2018-10-18T08:48:49.888Z,17.90
2018-10-18T08:49:49.999Z,20.80
2018-10-18T08:50:49.932Z,17.80
2018-10-18T08:51:49.947Z,24.60
2018-10-18T08:52:49.969Z,21.30
2018-10-18T08:53:49.988Z,20.60
2018-10-18T08:54:50.008Z,21.30
2018-10-18T08:55:50.028Z,16.70
2018-10-18T08:56:50.051Z,19.90
2018-10-18T08:57:50.070Z,29.20
2018-10-18T08:58:50.090Z,22.20
2018-10-18T08:59:50.108Z,21.40
2018-10-18T09:00:50.128Z,17.80
2018-10-18T09:01:50.149Z,20.30
2018-10-18T09:02:50.169Z,16.40
2018-10-18T09:03:50.189Z,14.70
2018-10-18T09:04:50.209Z,17.40
2018-10-18T09:05:50.230Z,16.70
2018-10-18T09:06:50.251Z,19.20
2018-10-18T09:07:50.271Z,17.70
2018-10-18T09:08:50.294Z,15.40
2018-10-18T09:09:50.320Z,19.20
2018-10-18T09:10:50.333Z,20.50
2018-10-18T09:11:50.554Z,17.00
2018-10-18T09:12:50.374Z,16.20
2018-10-18T09:13:50.392Z,17.10
2018-10-18T09:14:50.417Z,17.50
2018-10-18T09:15:50.478Z,19.20
2018-10-18T09:16:50.455Z,18.60
2018-10-18T09:17:50.475Z,17.20
2018-10-18T09:18:50.496Z,20.00
2018-10-18T09:19:50.516Z,28.20
2018-10-18T09:20:50.538Z,16.40
2018-10-18T09:21:50.561Z,19.80
2018-10-18T09:22:50.580Z,18.00
2018-10-18T09:23:50.682Z,15.10
2018-10-18T09:24:50.621Z,14.60
2018-10-18T09:25:50.642Z,15.10
2018-10-18T09:26:50.661Z,17.50
2018-10-18T09:27:50.690Z,16.40
2018-10-18T09:28:50.704Z,15.80
2018-10-18T09:29:50.724Z,15.00
2018-10-18T09:30:50.746Z,18.50
2018-10-18T09:31:50.765Z,16.30
2018-10-18T09:32:50.789Z,17.40
2018-10-18T09:33:50.809Z,18.70
2018-10-18T09:34:50.832Z,24.50
2018-10-18T09:35:50.849Z,39.30
2018-10-18T09:36:50.871Z,43.50
2018-10-18T09:37:50.893Z,31.90
2018-10-18T09:38:50.913Z,24.30
2018-10-18T09:39:50.935Z,17.80
2018-10-18T09:40:50.954Z,17.80
2018-10-18T09:41:50.976Z,20.30
2018-10-18T09:42:50.997Z,18.90
2018-10-18T09:43:51.022Z,18.60
2018-10-18T09:44:51.069Z,15.60
2018-10-18T09:45:51.061Z,17.60
2018-10-18T09:46:51.082Z,18.00
2018-10-18T09:47:51.103Z,14.50
2018-10-18T09:48:51.123Z,18.00
2018-10-18T09:49:51.144Z,20.80
2018-10-18T09:50:51.165Z,17.90
2018-10-18T09:51:51.186Z,16.90
2018-10-18T09:52:51.263Z,17.20
2018-10-18T09:53:51.228Z,14.20
2018-10-18T09:54:51.254Z,18.30
2018-10-18T09:55:51.274Z,18.10
2018-10-18T09:56:51.290Z,19.00
2018-10-18T09:57:51.312Z,16.70
2018-10-18T09:58:51.338Z,16.00
2018-10-18T09:59:51.357Z,15.20
2018-10-18T10:00:51.376Z,16.60
2018-10-18T10:01:51.396Z,17.20
2018-10-18T10:02:51.420Z,18.00
2018-10-18T10:03:51.438Z,22.40
2018-10-18T10:04:51.459Z,18.90
2018-10-18T10:05:51.481Z,40.90
2018-10-18T10:06:51.509Z,17.80
2018-10-18T10:07:51.523Z,13.30
2018-10-18T10:08:51.545Z,16.20
2018-10-18T10:09:51.567Z,16.00
2018-10-18T10:10:51.588Z,15.90
2018-10-18T10:11:51.639Z,16.60
2018-10-18T10:12:51.673Z,16.50
2018-10-18T10:13:51.651Z,16.90
2018-10-18T10:14:51.672Z,15.10
2018-10-18T10:15:51.705Z,16.30
2018-10-18T10:16:51.714Z,19.70
2018-10-18T10:17:51.736Z,18.40
2018-10-18T10:18:51.810Z,17.10
2018-10-18T10:19:51.780Z,18.90
2018-10-18T10:20:51.800Z,17.40
2018-10-18T10:21:51.822Z,14.40
2018-10-18T10:22:51.848Z,16.60
2018-10-18T10:23:52.114Z,20.20
2018-10-18T10:24:51.935Z,15.60
2018-10-18T10:25:51.960Z,15.10
2018-10-18T10:26:51.930Z,15.30
2018-10-18T10:27:51.950Z,15.70
2018-10-18T10:28:51.972Z,20.00
2018-10-18T10:29:51.993Z,16.70
2018-10-18T10:30:52.019Z,19.70
2018-10-18T10:31:52.036Z,17.70
2018-10-18T10:32:52.086Z,19.00
2018-10-18T10:33:52.080Z,19.40
2018-10-18T10:34:52.110Z,21.00
2018-10-18T10:35:52.121Z,25.20
2018-10-18T10:36:52.164Z,22.80
2018-10-18T10:37:52.165Z,22.60
2018-10-18T10:38:52.616Z,21.90
2018-10-18T10:39:52.211Z,19.30
2018-10-18T10:40:52.247Z,16.70
2018-10-18T10:41:52.252Z,16.80
2018-10-18T10:42:52.324Z,21.70
2018-10-18T10:43:52.298Z,15.50
2018-10-18T10:44:52.358Z,24.80
2018-10-18T10:45:52.490Z,14.60
2018-10-18T10:46:52.505Z,15.60
2018-10-18T10:47:52.377Z,14.30
2018-10-18T10:48:52.397Z,16.20
2018-10-18T10:49:52.426Z,15.20
2018-10-18T10:50:52.490Z,13.60
2018-10-18T10:51:52.489Z,16.00
2018-10-18T10:52:52.486Z,18.40
2018-10-18T10:53:52.545Z,17.60
2018-10-18T10:54:52.523Z,14.20
2018-10-18T10:55:52.556Z,15.60
2018-10-18T10:56:52.565Z,16.30
2018-10-18T10:57:52.595Z,15.00
2018-10-18T10:58:52.646Z,18.70
2018-10-18T10:59:52.628Z,17.80
2018-10-18T11:00:52.648Z,16.00
2018-10-18T11:01:52.678Z,20.60
2018-10-18T11:02:52.697Z,14.60
2018-10-18T11:03:52.721Z,14.90
2018-10-18T11:04:52.731Z,17.50
2018-10-18T11:05:52.787Z,14.90
2018-10-18T11:06:52.774Z,18.20
2018-10-18T11:07:52.798Z,14.00
2018-10-18T11:08:52.849Z,18.30
2018-10-18T11:09:52.837Z,40.80
2018-10-18T11:10:52.856Z,78.40
2018-10-18T11:11:52.903Z,41.50
2018-10-18T11:12:52.898Z,15.70
2018-10-18T11:13:52.924Z,12.00
2018-10-18T11:14:52.988Z,12.70
2018-10-18T11:15:52.962Z,12.10
2018-10-18T11:16:52.981Z,12.60
2018-10-18T11:17:53.008Z,10.50
2018-10-18T11:18:53.025Z,12.40
2018-10-18T11:19:53.088Z,10.20
2018-10-18T11:20:53.069Z,11.00
2018-10-18T11:21:53.087Z,12.90
2018-10-18T11:22:53.108Z,11.70
2018-10-18T11:23:53.172Z,10.30
2018-10-18T11:24:53.253Z,10.80
2018-10-18T11:25:53.233Z,9.60
2018-10-18T11:26:53.208Z,8.10
2018-10-18T11:27:53.214Z,11.20
2018-10-18T11:28:53.235Z,8.40
2018-10-18T11:29:53.270Z,7.60
2018-10-18T11:30:53.282Z,6.20
2018-10-18T11:31:53.331Z,7.20
2018-10-18T11:32:53.894Z,8.10
2018-10-18T11:33:53.342Z,8.40
2018-10-18T11:34:53.364Z,8.90
2018-10-18T11:35:53.537Z,6.70
2018-10-18T11:36:53.405Z,7.00
2018-10-18T11:37:53.429Z,8.30
2018-10-18T11:38:53.498Z,8.90
2018-10-18T11:39:53.470Z,9.60
2018-10-18T11:40:53.490Z,9.90
2018-10-18T11:41:53.514Z,10.50
2018-10-18T11:42:53.533Z,9.70
2018-10-18T11:43:53.603Z,9.80
2018-10-18T11:44:53.575Z,11.60
2018-10-18T11:45:53.596Z,8.60
2018-10-18T11:46:53.617Z,10.20
2018-10-18T11:47:53.646Z,7.60
2018-10-18T11:48:53.661Z,8.90
2018-10-18T11:49:53.719Z,9.50
2018-10-18T11:50:53.701Z,8.60
2018-10-18T11:51:53.783Z,8.80
2018-10-18T11:52:53.743Z,8.00
2018-10-18T11:53:53.806Z,8.30
2018-10-18T11:54:53.791Z,9.20
2018-10-18T11:55:53.851Z,15.40
2018-10-18T11:56:53.828Z,16.70
2018-10-18T11:57:53.848Z,10.60
2018-10-18T11:58:53.918Z,10.40
2018-10-18T11:59:53.891Z,13.40
2018-10-18T12:00:53.911Z,17.70
2018-10-18T12:01:53.937Z,10.00
2018-10-18T12:02:53.954Z,11.40
2018-10-18T12:03:53.973Z,12.10
2018-10-18T12:04:54.045Z,11.80
2018-10-18T12:05:54.017Z,11.20
2018-10-18T12:06:54.039Z,13.80
2018-10-18T12:07:54.106Z,12.10
2018-10-18T12:08:54.081Z,11.70
2018-10-18T12:09:54.101Z,10.70
2018-10-18T12:10:54.137Z,12.30
2018-10-18T12:11:54.145Z,12.80
2018-10-18T12:12:54.165Z,11.90
2018-10-18T12:13:54.193Z,13.60
2018-10-18T12:14:54.210Z,13.90
2018-10-18T12:15:54.230Z,12.70
2018-10-18T12:16:54.292Z,14.60
2018-10-18T12:17:54.272Z,16.90
2018-10-18T12:18:54.330Z,17.70
2018-10-18T12:19:54.363Z,14.40
2018-10-18T12:20:54.333Z,11.70
2018-10-18T12:21:54.504Z,11.70
2018-10-18T12:22:54.391Z,11.20
2018-10-18T12:23:54.396Z,11.50
2018-10-18T12:24:54.417Z,13.60
2018-10-18T12:25:54.441Z,10.40
2018-10-18T12:26:54.486Z,10.60
2018-10-18T12:27:54.486Z,17.00
2018-10-18T12:28:54.543Z,12.80
2018-10-18T12:29:54.523Z,17.90
2018-10-18T12:30:54.544Z,16.60
2018-10-18T12:31:54.610Z,11.30
2018-10-18T12:32:54.589Z,11.60
2018-10-18T12:33:54.610Z,10.60
2018-10-18T12:34:54.663Z,10.80
2018-10-18T12:35:54.651Z,13.10
2018-10-18T12:36:54.676Z,13.30
2018-10-18T12:37:54.701Z,11.50
2018-10-18T12:38:54.714Z,13.00
2018-10-18T12:39:54.734Z,9.50
2018-10-18T12:40:54.941Z,9.60
2018-10-18T12:41:55.097Z,10.10
2018-10-18T12:42:55.203Z,9.60
2018-10-18T12:43:54.872Z,9.50
2018-10-18T12:44:54.841Z,8.30
2018-10-18T12:45:54.862Z,8.90
2018-10-18T12:46:54.884Z,7.60
2018-10-18T12:47:54.927Z,8.10
2018-10-18T12:48:54.926Z,7.20
2018-10-18T12:49:54.965Z,7.60
2018-10-18T12:50:54.969Z,12.10
2018-10-18T12:51:54.988Z,5.60
2018-10-18T12:52:55.010Z,5.90
2018-10-18T12:53:55.085Z,6.40